createdAt,value
2023-03-10T00:02:04.539Z,3.60
2023-03-10T00:04:53.239Z,3.65
2023-03-10T00:07:41.529Z,3.72
2023-03-10T00:10:30.473Z,3.74
2023-03-10T00:13:18.053Z,3.79
2023-03-10T00:16:05.305Z,3.76
2023-03-10T00:18:53.598Z,3.71
2023-03-10T00:21:40.087Z,3.55
2023-03-10T00:24:28.416Z,3.56
2023-03-10T00:27:15.086Z,3.61
2023-03-10T00:30:02.032Z,3.49
2023-03-10T00:32:50.979Z,3.49
2023-03-10T00:35:37.668Z,3.55
2023-03-10T00:38:25.309Z,3.54
2023-03-10T00:41:15.329Z,3.61
2023-03-10T00:44:03.632Z,3.64
2023-03-10T00:46:50.840Z,3.63
2023-03-10T00:49:37.631Z,3.58
2023-03-10T00:52:25.427Z,3.54
2023-03-10T00:55:13.750Z,3.45
2023-03-10T00:58:01.721Z,3.62
2023-03-10T01:00:48.312Z,3.59
2023-03-10T01:03:35.094Z,3.55
2023-03-10T01:06:23.004Z,3.62
2023-03-10T01:09:09.748Z,3.61
2023-03-10T01:11:56.359Z,3.44
2023-03-10T01:14:44.654Z,3.38
2023-03-10T01:17:31.649Z,3.39
2023-03-10T01:20:19.103Z,3.41
2023-03-10T01:23:05.971Z,3.34
2023-03-10T01:25:53.810Z,3.37
2023-03-10T01:28:40.804Z,3.48
2023-03-10T01:31:28.893Z,3.49
2023-03-10T01:34:16.404Z,3.39
2023-03-10T01:37:03.110Z,3.31
2023-03-10T01:39:49.974Z,3.45
2023-03-10T01:42:36.853Z,3.54
2023-03-10T01:46:00.522Z,3.56
2023-03-10T01:48:49.837Z,3.45
2023-03-10T01:51:38.563Z,3.38
2023-03-10T01:54:30.137Z,3.42
2023-03-10T01:57:20.085Z,3.36
2023-03-10T02:00:12.350Z,3.39
2023-03-10T02:03:08.713Z,3.46
2023-03-10T02:05:59.705Z,3.50
2023-03-10T02:08:50.184Z,3.56
2023-03-10T02:11:39.616Z,3.45
2023-03-10T02:14:26.878Z,3.41
2023-03-10T02:17:17.222Z,3.58
2023-03-10T02:20:20.455Z,3.48
2023-03-10T02:23:08.893Z,3.42
2023-03-10T02:26:01.019Z,3.49
2023-03-10T02:28:51.446Z,3.56
2023-03-10T02:31:38.867Z,3.62
2023-03-10T02:34:26.616Z,3.44
2023-03-10T02:37:21.844Z,3.46
2023-03-10T02:40:32.158Z,3.56
2023-03-10T02:43:26.554Z,3.47
2023-03-10T02:46:20.205Z,3.36
2023-03-10T02:49:10.503Z,3.31
2023-03-10T02:52:04.062Z,3.40
2023-03-10T02:54:50.730Z,3.46
2023-03-10T02:57:37.623Z,3.61
2023-03-10T03:00:24.572Z,3.74
2023-03-10T03:03:14.232Z,3.62
2023-03-10T03:06:01.502Z,3.67
2023-03-10T03:08:48.567Z,3.70
2023-03-10T03:11:37.802Z,3.65
2023-03-10T03:14:27.611Z,3.56
2023-03-10T03:17:14.309Z,3.65
2023-03-10T03:20:11.789Z,3.65
2023-03-10T03:23:00.208Z,3.50
2023-03-10T03:25:47.609Z,3.55
2023-03-10T03:28:38.216Z,3.62
2023-03-10T03:31:26.566Z,3.70
2023-03-10T03:34:28.134Z,3.62
2023-03-10T03:37:19.352Z,3.53
2023-03-10T03:40:12.828Z,3.59
2023-03-10T03:43:01.632Z,3.73
2023-03-10T03:45:48.568Z,3.58
2023-03-10T03:48:36.009Z,3.62
2023-03-10T03:51:26.218Z,3.45
2023-03-10T03:54:14.436Z,3.43
2023-03-10T03:57:01.500Z,3.44
2023-03-10T03:59:49.039Z,3.35
2023-03-10T04:02:36.586Z,3.32
2023-03-10T04:05:23.712Z,3.45
2023-03-10T04:08:10.508Z,3.44
2023-03-10T04:10:58.665Z,3.55
2023-03-10T04:13:48.484Z,3.47
2023-03-10T04:16:35.818Z,3.42
2023-03-10T04:19:24.240Z,3.29
2023-03-10T04:22:16.138Z,3.18
2023-03-10T04:25:06.110Z,3.26
2023-03-10T04:27:55.959Z,3.31
2023-03-10T04:30:43.681Z,3.33
2023-03-10T04:33:32.259Z,3.23
2023-03-10T04:36:19.859Z,3.15
2023-03-10T04:39:10.186Z,3.39
2023-03-10T04:41:56.581Z,3.26
2023-03-10T04:44:44.619Z,3.34
2023-03-10T04:47:31.577Z,3.24
2023-03-10T04:50:19.943Z,3.32
2023-03-10T04:53:08.361Z,3.41
2023-03-10T04:55:55.002Z,3.53
2023-03-10T04:58:42.432Z,3.72
2023-03-10T05:01:34.410Z,3.69
2023-03-10T05:04:24.499Z,3.61
2023-03-10T05:07:12.870Z,3.80
2023-03-10T05:10:06.935Z,3.68
2023-03-10T05:12:53.493Z,3.69
2023-03-10T05:15:40.886Z,3.68
2023-03-10T05:18:29.118Z,3.82
2023-03-10T05:21:17.529Z,3.79
2023-03-10T05:24:06.189Z,3.92
2023-03-10T05:26:53.633Z,3.65
2023-03-10T05:29:40.871Z,3.54
2023-03-10T05:32:35.864Z,3.59
2023-03-10T05:35:24.220Z,3.64
2023-03-10T05:38:11.833Z,3.57
2023-03-10T05:40:59.232Z,3.44
2023-03-10T05:43:46.054Z,3.35
2023-03-10T05:46:35.335Z,3.61
2023-03-10T05:49:22.604Z,3.62
2023-03-10T05:52:10.624Z,3.59
2023-03-10T05:54:59.580Z,3.60
2023-03-10T05:57:47.397Z,3.55
2023-03-10T06:00:34.135Z,3.61
2023-03-10T06:03:23.342Z,3.41
2023-03-10T06:06:10.392Z,3.48
2023-03-10T06:08:58.542Z,3.65
2023-03-10T06:11:45.273Z,3.78
2023-03-10T06:14:31.989Z,3.79
2023-03-10T06:17:19.851Z,3.95
2023-03-10T06:20:07.264Z,4.13
2023-03-10T06:22:54.292Z,3.97
2023-03-10T06:25:42.857Z,3.89
2023-03-10T06:28:33.128Z,4.03
2023-03-10T06:31:22.271Z,3.90
2023-03-10T06:34:08.994Z,3.86
2023-03-10T06:36:56.361Z,3.73
2023-03-10T06:39:43.094Z,3.69
2023-03-10T06:42:33.133Z,3.61
2023-03-10T06:45:19.939Z,3.80
2023-03-10T06:48:06.952Z,3.76
2023-03-10T06:50:59.209Z,3.90
2023-03-10T06:53:46.612Z,3.91
2023-03-10T06:56:33.314Z,3.71
2023-03-10T06:59:21.591Z,3.81
2023-03-10T07:02:09.208Z,3.84
2023-03-10T07:04:56.055Z,3.94
2023-03-10T07:07:42.666Z,3.87
2023-03-10T07:10:29.557Z,3.89
2023-03-10T07:13:17.412Z,4.00
2023-03-10T07:16:06.604Z,3.90
2023-03-10T07:18:52.991Z,3.95
2023-03-10T07:21:39.895Z,3.87
2023-03-10T07:24:26.312Z,3.95
2023-03-10T07:27:13.040Z,3.96
2023-03-10T07:30:00.000Z,3.94
2023-03-10T07:32:48.279Z,4.00
2023-03-10T07:35:36.761Z,4.12
2023-03-10T07:38:23.557Z,4.12
2023-03-10T07:41:12.535Z,4.02
2023-03-10T07:43:59.481Z,4.06
2023-03-10T07:46:46.178Z,4.12
2023-03-10T07:49:34.543Z,4.18
2023-03-10T07:52:21.514Z,4.11
2023-03-10T07:55:09.125Z,4.01
2023-03-10T07:57:56.881Z,4.16
2023-03-10T08:00:43.533Z,4.12
2023-03-10T08:03:30.472Z,4.02
2023-03-10T08:06:23.350Z,4.22
2023-03-10T08:09:09.823Z,4.18
2023-03-10T08:11:56.980Z,4.14
2023-03-10T08:14:43.471Z,4.31
2023-03-10T08:17:31.255Z,4.28
2023-03-10T08:20:18.642Z,4.17
2023-03-10T08:23:06.519Z,4.09
2023-03-10T08:25:53.608Z,4.26
2023-03-10T08:28:40.129Z,4.21
2023-03-10T08:31:27.004Z,4.08
2023-03-10T08:34:14.105Z,4.42
2023-03-10T08:37:01.039Z,4.45
2023-03-10T08:39:50.139Z,4.44
2023-03-10T08:42:37.157Z,4.39
2023-03-10T08:45:23.699Z,4.36
2023-03-10T08:48:10.433Z,4.38
2023-03-10T08:50:57.883Z,4.40
2023-03-10T08:53:46.756Z,4.38
2023-03-10T08:56:34.836Z,4.40
2023-03-10T08:59:21.578Z,4.58
2023-03-10T09:02:19.479Z,4.30
2023-03-10T09:05:07.050Z,4.48
2023-03-10T09:07:53.961Z,4.55
2023-03-10T09:10:45.594Z,4.48
2023-03-10T09:13:34.222Z,4.53
2023-03-10T09:16:21.480Z,4.67
2023-03-10T09:19:08.926Z,4.66
2023-03-10T09:21:57.636Z,4.56
2023-03-10T09:24:44.331Z,4.67
2023-03-10T09:27:31.018Z,4.76
2023-03-10T09:30:19.448Z,4.76
2023-03-10T09:33:07.752Z,4.30
2023-03-10T09:36:05.923Z,4.69
2023-03-10T09:38:53.503Z,4.76
2023-03-10T09:41:58.192Z,4.84
2023-03-10T09:44:56.996Z,4.84
2023-03-10T09:47:54.324Z,4.64
2023-03-10T09:50:44.747Z,4.70
2023-03-10T09:53:49.796Z,5.01
2023-03-10T09:56:37.941Z,5.18
2023-03-10T09:59:32.251Z,5.04
2023-03-10T10:02:23.432Z,5.17
2023-03-10T10:05:18.849Z,5.30
2023-03-10T10:08:19.416Z,5.26
2023-03-10T10:11:07.026Z,5.38
2023-03-10T10:14:08.113Z,5.38
2023-03-10T10:17:06.914Z,5.44
2023-03-10T10:19:54.846Z,5.57
2023-03-10T10:22:45.583Z,5.55
2023-03-10T10:25:33.131Z,5.83
2023-03-10T10:28:24.857Z,5.76
2023-03-10T10:31:17.643Z,5.80
2023-03-10T10:34:06.258Z,5.78
2023-03-10T10:36:56.021Z,5.78
2023-03-10T10:39:44.649Z,5.84
2023-03-10T10:42:33.562Z,5.96
2023-03-10T10:45:28.566Z,6.07
2023-03-10T10:48:34.326Z,6.20
2023-03-10T10:51:24.629Z,6.21
2023-03-10T10:54:28.365Z,6.23
2023-03-10T10:57:21.244Z,6.42
2023-03-10T11:00:19.106Z,6.41
2023-03-10T11:03:21.232Z,6.43
2023-03-10T11:06:16.107Z,6.45
2023-03-10T11:09:08.293Z,6.43
2023-03-10T11:12:04.259Z,6.77
2023-03-10T11:15:12.465Z,6.98
2023-03-10T11:18:06.989Z,7.01
2023-03-10T11:21:01.590Z,7.06
2023-03-10T11:23:55.761Z,7.28
2023-03-10T11:26:52.604Z,7.35
2023-03-10T11:29:53.086Z,7.52
2023-03-10T11:32:54.850Z,7.76
2023-03-10T11:35:45.986Z,8.01
2023-03-10T11:38:39.211Z,7.74
2023-03-10T11:41:29.179Z,8.08
2023-03-10T11:44:26.795Z,7.97
2023-03-10T11:47:21.469Z,8.19
2023-03-10T11:50:21.951Z,8.08
2023-03-10T11:53:15.231Z,8.27
2023-03-10T11:56:03.618Z,8.25
2023-03-10T11:58:54.721Z,8.10
2023-03-10T12:01:47.420Z,8.02
2023-03-10T12:04:39.804Z,8.16
2023-03-10T12:07:31.254Z,8.04
2023-03-10T12:10:19.848Z,8.18
2023-03-10T12:13:06.870Z,8.21
2023-03-10T12:15:57.717Z,8.28
2023-03-10T12:18:44.291Z,8.08
2023-03-10T12:21:32.330Z,8.28
2023-03-10T12:24:44.732Z,8.38
2023-03-10T12:27:31.031Z,8.28
2023-03-10T12:30:45.744Z,8.21
2023-03-10T12:33:42.287Z,8.14
2023-03-10T12:36:39.562Z,7.90
2023-03-10T12:39:41.798Z,8.18
2023-03-10T12:42:32.203Z,8.22
2023-03-10T12:45:28.540Z,8.11
2023-03-10T12:48:19.976Z,7.99
2023-03-10T12:51:14.168Z,7.99
2023-03-10T12:54:07.777Z,7.96
2023-03-10T12:57:04.718Z,7.85
2023-03-10T13:00:01.068Z,7.88
2023-03-10T13:02:52.025Z,7.83
2023-03-10T13:05:42.210Z,7.66
2023-03-10T13:08:36.140Z,7.72
2023-03-10T13:11:37.053Z,7.75
2023-03-10T13:14:24.396Z,7.77
2023-03-10T13:17:23.064Z,7.71
2023-03-10T13:20:17.397Z,7.89
2023-03-10T13:23:04.308Z,7.94
2023-03-10T13:25:55.955Z,7.77
2023-03-10T13:28:52.372Z,7.62
2023-03-10T13:31:39.297Z,7.76
2023-03-10T13:34:31.054Z,7.62
2023-03-10T13:37:17.806Z,7.72
2023-03-10T13:40:10.301Z,7.76
2023-03-10T13:42:57.989Z,7.87
2023-03-10T13:45:45.400Z,7.76
2023-03-10T13:48:33.462Z,7.58
2023-03-10T13:51:23.871Z,7.21
2023-03-10T13:54:20.677Z,7.10
2023-03-10T13:57:14.030Z,7.11
2023-03-10T14:00:05.907Z,7.18
2023-03-10T14:02:59.447Z,7.31
2023-03-10T14:05:47.873Z,7.40
2023-03-10T14:08:36.020Z,7.35
2023-03-10T14:11:33.917Z,7.16
2023-03-10T14:14:29.422Z,7.02
2023-03-10T14:17:35.239Z,6.62
2023-03-10T14:20:29.626Z,6.70
2023-03-10T14:23:29.232Z,6.28
2023-03-10T14:26:18.454Z,6.07
2023-03-10T14:29:11.642Z,6.39
2023-03-10T14:31:57.966Z,6.12
2023-03-10T14:34:44.986Z,6.00
2023-03-10T14:37:31.937Z,5.94
2023-03-10T14:40:20.813Z,5.69
2023-03-10T14:43:15.285Z,6.05
2023-03-10T14:46:03.222Z,6.27
2023-03-10T14:48:50.276Z,6.19
2023-03-10T14:51:37.123Z,6.03
2023-03-10T14:54:25.529Z,6.14
2023-03-10T14:57:15.909Z,6.15
2023-03-10T15:00:06.625Z,6.23
2023-03-10T15:02:53.334Z,6.21
2023-03-10T15:05:48.210Z,6.21
2023-03-10T15:08:35.623Z,6.22
2023-03-10T15:11:35.921Z,5.99
2023-03-10T15:14:23.316Z,5.96
2023-03-10T15:17:14.815Z,6.03
2023-03-10T15:20:08.710Z,6.05
2023-03-10T15:22:56.173Z,5.92
2023-03-10T15:25:45.304Z,5.88
2023-03-10T15:28:32.536Z,6.01
2023-03-10T15:31:23.248Z,5.92
2023-03-10T15:34:11.522Z,5.69
2023-03-10T15:36:58.341Z,5.55
2023-03-10T15:39:45.012Z,5.21
2023-03-10T15:42:31.659Z,5.22
2023-03-10T15:45:19.381Z,5.00
2023-03-10T15:48:06.578Z,5.05
2023-03-10T15:50:54.707Z,5.16
2023-03-10T15:53:41.495Z,5.19
2023-03-10T15:56:28.327Z,5.16
2023-03-10T15:59:15.120Z,5.05
2023-03-10T16:02:02.176Z,5.20
2023-03-10T16:04:49.326Z,4.84
2023-03-10T16:07:38.859Z,4.89
2023-03-10T16:10:26.078Z,4.96
2023-03-10T16:13:13.828Z,4.76
2023-03-10T16:16:05.976Z,4.96
2023-03-10T16:18:52.950Z,5.05
2023-03-10T16:21:39.560Z,5.11
2023-03-10T16:24:27.669Z,4.96
2023-03-10T16:27:14.718Z,4.99
2023-03-10T16:30:01.640Z,4.92
2023-03-10T16:32:49.258Z,5.12
2023-03-10T16:35:35.686Z,5.12
2023-03-10T16:38:22.654Z,5.15
2023-03-10T16:41:11.641Z,5.16
2023-03-10T16:43:58.359Z,5.22
2023-03-10T16:46:45.097Z,5.03
2023-03-10T16:49:32.809Z,5.13
2023-03-10T16:52:19.501Z,4.99
2023-03-10T16:55:08.853Z,4.79
2023-03-10T16:57:57.765Z,4.77
2023-03-10T17:00:44.274Z,4.81
2023-03-10T17:03:31.016Z,4.84
2023-03-10T17:06:22.700Z,4.87
2023-03-10T17:09:11.133Z,4.97
2023-03-10T17:11:57.853Z,4.94
2023-03-10T17:14:46.017Z,4.93
2023-03-10T17:17:33.470Z,4.64
2023-03-10T17:20:20.187Z,4.80
2023-03-10T17:23:12.708Z,4.80
2023-03-10T17:26:02.969Z,4.94
2023-03-10T17:28:54.799Z,4.97
2023-03-10T17:31:57.991Z,4.80
2023-03-10T17:34:53.800Z,4.92
2023-03-10T17:37:47.030Z,4.68
2023-03-10T17:40:43.781Z,4.61
2023-03-10T17:43:34.482Z,4.77
2023-03-10T17:46:24.228Z,4.63
2023-03-10T17:49:13.506Z,4.53
2023-03-10T17:52:00.181Z,4.65
2023-03-10T17:54:46.857Z,4.70
2023-03-10T17:57:33.720Z,4.49
2023-03-10T18:00:22.410Z,4.44
2023-03-10T18:03:09.475Z,4.61
2023-03-10T18:05:57.938Z,4.61
2023-03-10T18:08:44.684Z,4.63
2023-03-10T18:11:32.359Z,4.61
2023-03-10T18:14:18.757Z,4.49
2023-03-10T18:17:05.671Z,4.63
2023-03-10T18:19:53.447Z,4.55
2023-03-10T18:22:41.407Z,4.42
2023-03-10T18:25:28.238Z,4.62
2023-03-10T18:28:19.274Z,4.59
2023-03-10T18:31:08.231Z,4.54
2023-03-10T18:33:54.918Z,4.37
2023-03-10T18:36:41.666Z,4.55
2023-03-10T18:39:30.053Z,4.44
2023-03-10T18:42:16.515Z,3.98
2023-03-10T18:45:03.380Z,3.87
2023-03-10T18:47:50.345Z,4.15
2023-03-10T18:50:36.906Z,4.10
2023-03-10T18:53:24.417Z,4.10
2023-03-10T18:56:12.556Z,4.32
2023-03-10T18:58:59.146Z,4.31
2023-03-10T19:01:46.030Z,4.29
2023-03-10T19:04:32.884Z,4.21
2023-03-10T19:07:21.358Z,4.07
2023-03-10T19:10:09.207Z,4.15
2023-03-10T19:12:57.669Z,4.21
2023-03-10T19:15:44.405Z,4.32
2023-03-10T19:18:31.185Z,4.35
2023-03-10T19:21:17.946Z,4.26
2023-03-10T19:24:05.001Z,4.34
2023-03-10T19:26:51.633Z,4.49
2023-03-10T19:29:39.624Z,4.42
2023-03-10T19:32:28.525Z,4.51
2023-03-10T19:35:16.189Z,4.46
2023-03-10T19:38:02.753Z,4.35
2023-03-10T19:40:49.400Z,4.53
2023-03-10T19:43:37.586Z,4.64
2023-03-10T19:46:25.647Z,4.37
2023-03-10T19:49:12.352Z,4.42
2023-03-10T19:51:59.176Z,4.35
2023-03-10T19:54:46.119Z,4.28
2023-03-10T19:57:32.832Z,4.24
2023-03-10T20:00:24.995Z,4.32
2023-03-10T20:03:13.863Z,4.37
2023-03-10T20:06:01.485Z,4.21
2023-03-10T20:08:48.718Z,4.34
2023-03-10T20:11:35.398Z,4.35
2023-03-10T20:14:21.888Z,4.31
2023-03-10T20:17:09.255Z,4.29
2023-03-10T20:19:57.432Z,4.30
2023-03-10T20:22:46.390Z,4.24
2023-03-10T20:25:33.139Z,4.16
2023-03-10T20:28:20.123Z,4.05
2023-03-10T20:31:06.996Z,4.10
2023-03-10T20:33:53.924Z,4.19
2023-03-10T20:36:41.725Z,4.11
2023-03-10T20:39:28.492Z,4.13
2023-03-10T20:42:15.216Z,4.22
2023-03-10T20:45:02.625Z,4.16
2023-03-10T20:47:49.795Z,3.92
2023-03-10T20:50:36.904Z,3.89
2023-03-10T20:53:25.017Z,3.90
2023-03-10T20:56:14.332Z,4.07
2023-03-10T20:59:01.916Z,3.92
2023-03-10T21:01:48.727Z,4.10
2023-03-10T21:04:35.326Z,4.04
2023-03-10T21:07:22.014Z,4.03
2023-03-10T21:10:13.369Z,3.81
2023-03-10T21:13:00.039Z,4.12
2023-03-10T21:15:46.947Z,4.03
2023-03-10T21:18:34.166Z,4.11
2023-03-10T21:21:20.592Z,4.03
2023-03-10T21:24:07.557Z,3.91
2023-03-10T21:26:55.882Z,4.02
2023-03-10T21:29:43.198Z,4.02
2023-03-10T21:32:29.805Z,4.07
2023-03-10T21:35:17.838Z,4.11
2023-03-10T21:38:04.389Z,4.15
2023-03-10T21:40:51.072Z,4.19
2023-03-10T21:43:39.283Z,4.18
2023-03-10T21:46:27.334Z,4.17
2023-03-10T21:49:13.792Z,4.12
2023-03-10T21:52:00.589Z,4.12
2023-03-10T21:54:47.587Z,4.14
2023-03-10T21:57:34.168Z,4.01
2023-03-10T22:00:24.378Z,3.94
2023-03-10T22:03:10.857Z,4.00
2023-03-10T22:05:59.666Z,3.67
2023-03-10T22:08:46.310Z,3.83
2023-03-10T22:11:36.044Z,3.92
2023-03-10T22:14:25.403Z,3.85
2023-03-10T22:17:14.044Z,3.86
2023-03-10T22:20:01.844Z,3.83
2023-03-10T22:22:48.720Z,3.79
2023-03-10T22:25:35.806Z,3.92
2023-03-10T22:28:22.335Z,3.96
2023-03-10T22:31:09.955Z,3.83
2023-03-10T22:33:57.783Z,4.15
2023-03-10T22:36:44.460Z,4.02
2023-03-10T22:39:31.060Z,3.84
2023-03-10T22:42:17.728Z,3.95
2023-03-10T22:45:06.105Z,3.81
2023-03-10T22:47:55.220Z,3.95
2023-03-10T22:50:46.757Z,4.08
2023-03-10T22:53:33.324Z,4.01
2023-03-10T22:56:21.070Z,4.10
2023-03-10T22:59:08.327Z,4.02
2023-03-10T23:01:55.080Z,3.97
2023-03-10T23:04:43.050Z,3.85
2023-03-10T23:07:31.016Z,3.85
2023-03-10T23:10:19.716Z,3.96
2023-03-10T23:13:08.522Z,3.71
2023-03-10T23:15:55.445Z,3.85
2023-03-10T23:18:42.235Z,3.73
2023-03-10T23:21:29.023Z,3.68
2023-03-10T23:24:17.166Z,3.67
2023-03-10T23:27:03.935Z,3.59
2023-03-10T23:29:50.781Z,3.62
2023-03-10T23:32:37.508Z,3.53
2023-03-10T23:35:27.079Z,3.48
2023-03-10T23:38:14.077Z,3.65
2023-03-10T23:41:02.006Z,3.70
2023-03-10T23:43:48.646Z,3.65
2023-03-10T23:46:35.508Z,3.72
2023-03-10T23:49:23.559Z,3.83
2023-03-10T23:52:09.965Z,3.79
2023-03-10T23:54:56.760Z,3.71
2023-03-10T23:57:44.870Z,3.84
